Time;durP1;ratioP1;P1;durP2;ratioP2;P2;SDS_P1;SDS_P2;PMS_P1;PMS_P2;Temp;Humidity;BMP_temperature;BMP_pressure;BME280_temperature;BME280_humidity;BME280_pressure;Samples;Min_cycle;Max_cycle;Signal;HPM_P1;HPM_P2
2023/08/04 02:00:18;;;;;;;3.33;1.55;;;;;;;;;;5011537;27;20003;-74
2023/08/04 02:02:44;;;;;;;3.72;1.52;;;;;;;;;;4319623;33;20074;-75
2023/08/04 02:05:12;;;;;;;3.65;1.48;;;;;;;;;;4311692;33;20102;-74
2023/08/04 02:07:38;;;;;;;4.72;1.50;;;;;;;;;;4309584;33;20053;-75
2023/08/04 02:10:04;;;;;;;6.60;1.48;;;;;;;;;;4293184;33;20033;-74
2023/08/04 02:12:31;;;;;;;2.83;1.45;;;;;;;;;;4293689;33;20033;-74
2023/08/04 02:14:57;;;;;;;4.62;1.40;;;;;;;;;;4291368;33;20075;-74
2023/08/04 02:17:23;;;;;;;1.77;1.23;;;;;;;;;;4294255;33;20103;-74
2023/08/04 02:19:49;;;;;;;5.53;1.67;;;;;;;;;;4293882;33;20037;-75
2023/08/04 02:22:15;;;;;;;6.00;1.90;;;;;;;;;;4293400;33;20049;-73
2023/08/04 02:24:41;;;;;;;5.05;1.62;;;;;;;;;;4293071;33;20463;-75
2023/08/04 02:27:07;;;;;;;5.45;1.55;;;;;;;;;;4293578;33;20059;-74
2023/08/04 02:29:33;;;;;;;1.98;1.60;;;;;;;;;;4294488;33;20049;-74
2023/08/04 02:31:59;;;;;;;3.40;1.67;;;;;;;;;;4294566;33;20217;-74
2023/08/04 02:34:26;;;;;;;3.75;1.60;;;;;;;;;;4294445;33;20070;-75
2023/08/04 02:36:52;;;;;;;4.47;1.33;;;;;;;;;;4294182;33;20056;-74
2023/08/04 02:39:18;;;;;;;5.03;1.50;;;;;;;;;;4297845;33;20092;-74
2023/08/04 02:41:44;;;;;;;3.83;1.87;;;;;;;;;;4312701;33;20066;-74
2023/08/04 02:44:10;;;;;;;6.72;1.37;;;;;;;;;;4323251;33;20044;-74
2023/08/04 02:46:37;;;;;;;4.15;1.17;;;;;;;;;;4323207;33;20053;-74
2023/08/04 02:49:03;;;;;;;6.37;1.77;;;;;;;;;;4316279;33;20067;-74
2023/08/04 02:51:30;;;;;;;3.30;2.08;;;;;;;;;;4313980;33;20086;-74
2023/08/04 02:53:56;;;;;;;2.83;1.42;;;;;;;;;;4311020;33;20040;-74
2023/08/04 02:56:23;;;;;;;2.87;1.50;;;;;;;;;;4311178;33;20067;-74
2023/08/04 02:58:48;;;;;;;7.12;2.20;;;;;;;;;;4309606;33;20044;-75
2023/08/04 03:01:15;;;;;;;4.15;2.12;;;;;;;;;;4310553;33;20048;-75
2023/08/04 03:03:41;;;;;;;8.70;1.33;;;;;;;;;;4311740;33;20044;-74
2023/08/04 03:06:07;;;;;;;5.15;1.62;;;;;;;;;;4311916;33;20045;-74
2023/08/04 03:08:33;;;;;;;4.57;1.30;;;;;;;;;;4312589;33;20063;-74
2023/08/04 03:11:00;;;;;;;3.25;1.73;;;;;;;;;;4315555;33;20049;-75
2023/08/04 03:13:26;;;;;;;2.70;1.62;;;;;;;;;;4318247;33;20078;-74
2023/08/04 03:15:54;;;;;;;3.83;2.20;;;;;;;;;;4326482;33;20056;-74
2023/08/04 03:18:20;;;;;;;9.27;3.25;;;;;;;;;;4326322;33;20058;-75
2023/08/04 03:20:46;;;;;;;4.35;2.53;;;;;;;;;;4328245;33;20369;-74
2023/08/04 03:23:12;;;;;;;3.78;1.67;;;;;;;;;;4313619;33;20036;-74
2023/08/04 03:25:39;;;;;;;4.47;1.90;;;;;;;;;;4311917;33;20711;-75
2023/08/04 03:28:05;;;;;;;4.28;2.85;;;;;;;;;;4313586;33;20070;-74
2023/08/04 03:30:31;;;;;;;6.53;2.15;;;;;;;;;;4313827;33;20344;-74
2023/08/04 03:32:57;;;;;;;4.50;1.73;;;;;;;;;;4314048;33;20067;-74
2023/08/04 03:35:23;;;;;;;7.55;2.60;;;;;;;;;;4311275;33;20044;-75
2023/08/04 03:37:49;;;;;;;3.58;1.52;;;;;;;;;;4319550;33;20977;-75
2023/08/04 03:40:16;;;;;;;2.90;2.03;;;;;;;;;;4328601;33;20048;-77
2023/08/04 03:42:43;;;;;;;5.00;2.30;;;;;;;;;;4328443;33;20091;-77
2023/08/04 03:45:09;;;;;;;4.00;1.50;;;;;;;;;;4327222;33;20066;-75
2023/08/04 03:47:35;;;;;;;5.22;1.37;;;;;;;;;;4326301;33;20044;-74
2023/08/04 03:50:04;;;;;;;3.58;1.83;;;;;;;;;;4327336;33;20081;-74
2023/08/04 03:52:30;;;;;;;5.28;1.90;;;;;;;;;;4299003;33;20059;-75
2023/08/04 03:54:57;;;;;;;5.05;1.55;;;;;;;;;;4301905;33;20485;-75
2023/08/04 03:57:23;;;;;;;4.57;2.15;;;;;;;;;;4316635;33;20045;-76
2023/08/04 03:59:51;;;;;;;4.40;1.27;;;;;;;;;;4321170;33;20074;-76
2023/08/04 04:02:17;;;;;;;11.00;1.90;;;;;;;;;;4296494;33;20044;-76
2023/08/04 04:04:43;;;;;;;1.20;1.15;;;;;;;;;;4296670;33;20063;-76
2023/08/04 04:07:09;;;;;;;2.62;1.37;;;;;;;;;;4296440;33;20057;-76
2023/08/04 04:09:35;;;;;;;7.53;2.00;;;;;;;;;;4294557;33;20087;-76
2023/08/04 04:12:02;;;;;;;3.75;1.80;;;;;;;;;;4296765;33;20048;-77
2023/08/04 04:14:28;;;;;;;6.35;1.42;;;;;;;;;;4296759;33;20249;-76
2023/08/04 04:16:54;;;;;;;2.60;1.35;;;;;;;;;;4309506;33;20123;-76
2023/08/04 04:19:21;;;;;;;5.05;1.67;;;;;;;;;;4311075;33;20033;-77
2023/08/04 04:21:47;;;;;;;5.87;1.92;;;;;;;;;;4293487;33;20390;-76
2023/08/04 04:24:13;;;;;;;7.15;1.62;;;;;;;;;;4287407;33;20408;-77
2023/08/04 04:26:39;;;;;;;4.05;1.52;;;;;;;;;;4296748;33;20477;-77
2023/08/04 04:29:05;;;;;;;6.03;1.40;;;;;;;;;;4296377;33;20041;-77
2023/08/04 04:31:31;;;;;;;3.92;1.70;;;;;;;;;;4294385;33;20473;-77
2023/08/04 04:33:58;;;;;;;6.68;1.60;;;;;;;;;;4289860;33;20198;-77
2023/08/04 04:36:24;;;;;;;7.72;1.98;;;;;;;;;;4295759;33;20117;-77
2023/08/04 04:38:50;;;;;;;3.00;2.05;;;;;;;;;;4296290;33;20066;-77
2023/08/04 04:41:16;;;;;;;7.35;1.60;;;;;;;;;;4296092;33;20045;-76
2023/08/04 04:43:42;;;;;;;3.58;1.80;;;;;;;;;;4295332;33;20053;-76
2023/08/04 04:46:08;;;;;;;7.93;1.37;;;;;;;;;;4294685;33;20573;-76
2023/08/04 04:48:35;;;;;;;4.57;1.62;;;;;;;;;;4278869;33;20064;-76
2023/08/04 04:51:01;;;;;;;6.68;1.75;;;;;;;;;;4239269;33;20479;-76
2023/08/04 04:53:27;;;;;;;4.03;1.50;;;;;;;;;;4258578;33;20075;-77
2023/08/04 04:55:55;;;;;;;4.50;1.85;;;;;;;;;;4265948;33;20498;-76
2023/08/04 04:58:21;;;;;;;8.63;2.40;;;;;;;;;;4265274;33;20057;-76
2023/08/04 05:00:47;;;;;;;10.43;1.80;;;;;;;;;;4251304;33;20092;-75
2023/08/04 05:03:13;;;;;;;5.53;1.30;;;;;;;;;;4252943;33;20072;-75
2023/08/04 05:05:41;;;;;;;3.58;1.60;;;;;;;;;;4262635;33;20038;-76
2023/08/04 05:08:07;;;;;;;1.92;1.30;;;;;;;;;;4263133;33;20057;-76
2023/08/04 05:10:33;;;;;;;3.50;1.73;;;;;;;;;;4266518;33;20075;-75
2023/08/04 05:12:59;;;;;;;3.75;1.60;;;;;;;;;;4266254;33;20079;-76
2023/08/04 05:15:25;;;;;;;2.25;1.50;;;;;;;;;;4265769;33;20030;-76
2023/08/04 05:17:51;;;;;;;5.32;1.65;;;;;;;;;;4236560;33;20882;-76
2023/08/04 05:20:18;;;;;;;2.25;1.30;;;;;;;;;;4234729;33;20085;-78
2023/08/04 05:22:44;;;;;;;5.47;1.87;;;;;;;;;;4237805;33;20212;-79
2023/08/04 05:25:10;;;;;;;1.27;1.15;;;;;;;;;;4210647;34;20051;-78
2023/08/04 05:27:36;;;;;;;2.28;1.45;;;;;;;;;;4209593;34;20114;-78
2023/08/04 05:30:02;;;;;;;3.20;1.40;;;;;;;;;;4210084;34;20043;-78
2023/08/04 05:32:29;;;;;;;4.55;2.00;;;;;;;;;;4209104;34;20480;-78
2023/08/04 05:34:54;;;;;;;8.27;2.25;;;;;;;;;;4194919;34;20040;-78
2023/08/04 05:37:21;;;;;;;2.80;1.73;;;;;;;;;;4196526;34;20077;-77
2023/08/04 05:39:47;;;;;;;5.97;1.30;;;;;;;;;;4214748;33;20038;-76
2023/08/04 05:42:13;;;;;;;2.40;1.35;;;;;;;;;;4214620;33;20043;-76
2023/08/04 05:44:39;;;;;;;1.73;1.52;;;;;;;;;;4210468;34;20854;-76
2023/08/04 05:47:06;;;;;;;11.80;1.80;;;;;;;;;;4212493;34;20046;-77
2023/08/04 05:49:32;;;;;;;3.78;1.60;;;;;;;;;;4211971;34;20429;-76
2023/08/04 05:51:58;;;;;;;3.45;1.67;;;;;;;;;;4207913;34;20047;-77
2023/08/04 05:54:25;;;;;;;9.73;1.42;;;;;;;;;;4210814;33;20069;-78
2023/08/04 05:56:51;;;;;;;6.20;1.40;;;;;;;;;;4258612;33;20057;-76
2023/08/04 05:59:17;;;;;;;11.18;1.52;;;;;;;;;;4266366;33;20274;-76
2023/08/04 06:01:44;;;;;;;3.75;1.60;;;;;;;;;;4265806;33;20059;-76
2023/08/04 06:04:10;;;;;;;3.90;1.50;;;;;;;;;;4267885;33;20060;-76
2023/08/04 06:06:36;;;;;;;3.78;1.52;;;;;;;;;;4281536;33;20088;-77
2023/08/04 06:09:03;;;;;;;4.28;1.95;;;;;;;;;;4280074;33;20083;-77
2023/08/04 06:11:29;;;;;;;5.57;2.05;;;;;;;;;;4278528;33;20057;-77
2023/08/04 06:13:55;;;;;;;5.85;1.60;;;;;;;;;;4279826;33;20072;-76
2023/08/04 06:16:21;;;;;;;4.22;1.45;;;;;;;;;;4279980;33;20537;-80
2023/08/04 06:18:48;;;;;;;8.75;1.30;;;;;;;;;;4294236;33;20466;-81
2023/08/04 06:21:14;;;;;;;4.28;2.17;;;;;;;;;;4314059;33;20053;-74
2023/08/04 06:23:45;;;;;;;3.65;1.23;;;;;;;;;;4306778;33;20048;-77
2023/08/04 06:26:12;;;;;;;;;;;;;;;;;;4309349;33;20037;-89
2023/08/04 06:28:39;;;;;;;1.40;1.30;;;;;;;;;;4311296;33;19980;-87
2023/08/04 06:31:05;;;;;;;2.37;1.40;;;;;;;;;;4308293;33;20041;-81
2023/08/04 06:33:31;;;;;;;3.92;2.35;;;;;;;;;;4309488;33;20032;-78
2023/08/04 06:36:04;;;;;;;7.53;1.52;;;;;;;;;;4308721;33;20430;-87
2023/08/04 06:38:30;;;;;;;3.62;1.60;;;;;;;;;;4305865;33;20443;-73
2023/08/04 06:40:58;;;;;;;4.20;1.87;;;;;;;;;;4309383;33;20082;-76
2023/08/04 06:43:24;;;;;;;1.92;1.35;;;;;;;;;;4278416;33;20042;-76
2023/08/04 06:45:50;;;;;;;4.45;1.40;;;;;;;;;;4284136;33;20399;-76
2023/08/04 06:48:16;;;;;;;7.60;1.62;;;;;;;;;;4276125;33;20040;-76
2023/08/04 06:50:42;;;;;;;8.10;1.70;;;;;;;;;;4280806;33;20127;-75
2023/08/04 06:53:10;;;;;;;5.37;1.58;;;;;;;;;;4280228;33;20086;-76
2023/08/04 06:55:36;;;;;;;2.05;1.30;;;;;;;;;;4266575;33;20046;-76
2023/08/04 06:58:02;;;;;;;4.00;2.15;;;;;;;;;;4266154;33;20128;-74
2023/08/04 07:00:28;;;;;;;2.87;1.30;;;;;;;;;;4272920;33;20037;-76
2023/08/04 07:02:54;;;;;;;3.25;1.58;;;;;;;;;;4281507;33;20038;-77
2023/08/04 07:05:20;;;;;;;4.62;1.20;;;;;;;;;;4286077;33;20079;-76
2023/08/04 07:07:49;;;;;;;6.50;1.50;;;;;;;;;;4279404;33;20061;-75
2023/08/04 07:10:16;;;;;;;3.95;2.03;;;;;;;;;;4283069;33;20053;-76
2023/08/04 07:12:42;;;;;;;1.30;1.20;;;;;;;;;;4281903;33;20506;-76
2023/08/04 07:15:08;;;;;;;9.38;1.33;;;;;;;;;;4274802;33;20060;-76
2023/08/04 07:17:34;;;;;;;2.90;1.30;;;;;;;;;;4280655;33;20045;-76
2023/08/04 07:20:01;;;;;;;3.83;1.65;;;;;;;;;;4284923;33;20053;-78
2023/08/04 07:22:27;;;;;;;11.90;1.90;;;;;;;;;;4312437;33;20736;-76
2023/08/04 07:24:53;;;;;;;1.42;1.15;;;;;;;;;;4316565;33;20104;-78
2023/08/04 07:27:19;;;;;;;7.43;1.50;;;;;;;;;;4313944;33;20206;-77
2023/08/04 07:29:46;;;;;;;1.00;1.00;;;;;;;;;;4314360;33;20116;-76
2023/08/04 07:32:12;;;;;;;2.03;1.20;;;;;;;;;;4311654;33;20233;-76
2023/08/04 07:34:38;;;;;;;3.03;1.10;;;;;;;;;;4296310;33;20045;-76
2023/08/04 07:37:04;;;;;;;6.25;1.10;;;;;;;;;;4297109;33;20410;-76
2023/08/04 07:39:31;;;;;;;6.82;1.30;;;;;;;;;;4295948;33;20114;-76
2023/08/04 07:41:57;;;;;;;0.90;0.85;;;;;;;;;;4296742;33;20256;-80
2023/08/04 07:44:24;;;;;;;4.57;0.98;;;;;;;;;;4297892;33;20080;-78
2023/08/04 07:46:50;;;;;;;2.15;1.02;;;;;;;;;;4300552;33;20465;-79
2023/08/04 07:49:16;;;;;;;0.90;0.90;;;;;;;;;;4293870;33;20057;-76
2023/08/04 07:51:44;;;;;;;2.20;1.15;;;;;;;;;;4294735;33;20341;-76
2023/08/04 07:54:10;;;;;;;6.87;1.30;;;;;;;;;;4294914;33;20081;-75
2023/08/04 07:56:36;;;;;;;1.27;1.20;;;;;;;;;;4296558;33;20115;-76
2023/08/04 07:59:02;;;;;;;6.53;1.48;;;;;;;;;;4308881;33;20459;-76
2023/08/04 08:01:29;;;;;;;5.10;0.90;;;;;;;;;;4309010;33;20085;-79
2023/08/04 08:03:57;;;;;;;1.60;0.82;;;;;;;;;;4308159;33;20053;-75
2023/08/04 08:06:22;;;;;;;3.65;2.15;;;;;;;;;;4295523;33;20049;-75
2023/08/04 08:08:49;;;;;;;2.78;2.00;;;;;;;;;;4291891;33;20082;-74
2023/08/04 08:11:15;;;;;;;5.15;1.25;;;;;;;;;;4293238;33;20201;-75
2023/08/04 08:13:41;;;;;;;1.35;1.23;;;;;;;;;;4292639;33;20430;-75
2023/08/04 08:16:08;;;;;;;1.58;1.25;;;;;;;;;;4293779;33;20036;-75
2023/08/04 08:18:35;;;;;;;2.28;0.90;;;;;;;;;;4293041;33;20056;-75
2023/08/04 08:21:03;;;;;;;3.15;2.05;;;;;;;;;;4291580;33;20068;-73
2023/08/04 08:23:30;;;;;;;0.80;0.80;;;;;;;;;;4295810;33;20063;-74
2023/08/04 08:25:56;;;;;;;7.45;1.90;;;;;;;;;;4296003;33;20130;-75
2023/08/04 08:28:22;;;;;;;5.22;1.60;;;;;;;;;;4295781;33;20463;-73
2023/08/04 08:30:54;;;;;;;1.85;1.05;;;;;;;;;;4294817;33;20041;-74
2023/08/04 08:33:21;;;;;;;1.45;1.35;;;;;;;;;;4295418;33;20046;-74
2023/08/04 08:35:48;;;;;;;3.45;0.98;;;;;;;;;;4294572;33;20080;-75
2023/08/04 08:38:14;;;;;;;9.35;1.98;;;;;;;;;;4276471;33;20041;-73
2023/08/04 08:40:40;;;;;;;12.85;2.20;;;;;;;;;;4258311;33;20042;-75
2023/08/04 08:43:06;;;;;;;2.35;1.00;;;;;;;;;;4258638;33;20331;-73
2023/08/04 08:45:33;;;;;;;2.35;0.80;;;;;;;;;;4269242;33;20125;-74
2023/08/04 08:48:00;;;;;;;1.15;1.10;;;;;;;;;;4273961;33;20046;-74
2023/08/04 08:50:26;;;;;;;1.80;1.00;;;;;;;;;;4273917;33;20038;-74
2023/08/04 08:53:16;;;;;;;5.65;1.35;;;;;;;;;;4271047;33;20065;-74
2023/08/04 08:55:44;;;;;;;8.90;1.25;;;;;;;;;;4266069;33;20448;-73
2023/08/04 08:58:11;;;;;;;1.80;0.90;;;;;;;;;;4273098;33;20048;-75
2023/08/04 09:00:37;;;;;;;4.40;1.15;;;;;;;;;;4272892;33;20060;-74
2023/08/04 09:03:04;;;;;;;2.78;1.08;;;;;;;;;;4252306;33;20068;-74
2023/08/04 09:05:31;;;;;;;2.75;1.17;;;;;;;;;;4252618;33;20405;-74
2023/08/04 09:07:57;;;;;;;1.75;0.98;;;;;;;;;;4265840;33;20096;-73
2023/08/04 09:10:23;;;;;;;5.72;1.10;;;;;;;;;;4265201;33;20038;-74
2023/08/04 09:12:54;;;;;;;1.83;1.10;;;;;;;;;;4266044;33;20435;-74
2023/08/04 09:15:31;;;;;;;0.98;0.90;;;;;;;;;;4266712;33;20041;-73
2023/08/04 09:17:58;;;;;;;6.85;1.00;;;;;;;;;;4272425;33;20072;-74
2023/08/04 09:20:30;;;;;;;6.22;0.90;;;;;;;;;;4279075;33;20128;-74
2023/08/04 09:22:57;;;;;;;6.05;1.10;;;;;;;;;;4280597;33;20089;-73
2023/08/04 09:25:23;;;;;;;3.97;1.10;;;;;;;;;;4281072;33;20026;-72
2023/08/04 09:27:49;;;;;;;5.05;1.15;;;;;;;;;;4280982;33;20386;-73
2023/08/04 09:30:16;;;;;;;1.15;1.08;;;;;;;;;;4280607;33;20099;-73
2023/08/04 09:32:44;;;;;;;0.98;0.88;;;;;;;;;;4278830;33;20054;-74
2023/08/04 09:35:10;;;;;;;0.73;0.73;;;;;;;;;;4280886;33;20071;-74
2023/08/04 09:37:37;;;;;;;2.10;1.10;;;;;;;;;;4280640;33;20058;-73
2023/08/04 09:40:24;;;;;;;0.73;0.70;;;;;;;;;;4281917;33;20045;-73
2023/08/04 09:42:50;;;;;;;2.33;0.82;;;;;;;;;;4280904;33;20063;-73
2023/08/04 09:45:18;;;;;;;3.10;0.60;;;;;;;;;;4283276;33;20203;-74
2023/08/04 09:47:48;;;;;;;7.15;1.00;;;;;;;;;;4290731;33;20350;-73
2023/08/04 09:50:16;;;;;;;8.07;1.02;;;;;;;;;;4295190;33;20367;-74
2023/08/04 09:52:42;;;;;;;1.15;0.80;;;;;;;;;;4294909;33;20091;-74
2023/08/04 09:55:11;;;;;;;0.60;0.60;;;;;;;;;;4296159;33;20809;-74
2023/08/04 09:57:38;;;;;;;4.82;0.93;;;;;;;;;;4296332;33;20156;-74
2023/08/04 10:00:05;;;;;;;3.53;0.98;;;;;;;;;;4296186;33;20087;-73
2023/08/04 10:02:35;;;;;;;2.17;1.30;;;;;;;;;;4293762;33;20041;-74
2023/08/04 10:05:02;;;;;;;6.40;1.00;;;;;;;;;;4293193;33;20162;-73
2023/08/04 10:07:29;;;;;;;6.55;1.20;;;;;;;;;;4294874;33;20073;-73
2023/08/04 10:09:55;;;;;;;1.65;0.90;;;;;;;;;;4293237;33;20033;-74
2023/08/04 10:12:22;;;;;;;2.08;0.75;;;;;;;;;;4294133;33;20071;-75
2023/08/04 10:14:48;;;;;;;6.37;1.55;;;;;;;;;;4294940;33;20068;-74
2023/08/04 10:17:14;;;;;;;2.05;0.80;;;;;;;;;;4291678;33;20087;-74
2023/08/04 10:19:41;;;;;;;5.43;1.02;;;;;;;;;;4295016;33;20060;-73
2023/08/04 10:22:08;;;;;;;1.25;1.00;;;;;;;;;;4294823;33;20459;-74
2023/08/04 10:24:35;;;;;;;2.47;0.82;;;;;;;;;;4282386;33;20046;-73
2023/08/04 10:27:11;;;;;;;2.28;1.20;;;;;;;;;;4279014;33;20067;-73
2023/08/04 10:29:37;;;;;;;6.43;1.17;;;;;;;;;;4280875;33;20045;-75
2023/08/04 10:32:07;;;;;;;6.53;1.27;;;;;;;;;;4281787;33;20061;-75
2023/08/04 10:34:43;;;;;;;4.10;1.10;;;;;;;;;;4281818;33;20038;-75
2023/08/04 10:37:14;;;;;;;3.22;0.90;;;;;;;;;;4279117;33;20071;-74
2023/08/04 10:39:41;;;;;;;0.80;0.80;;;;;;;;;;4280735;33;20055;-72
2023/08/04 10:42:21;;;;;;;1.45;0.98;;;;;;;;;;4280364;33;20114;-73
2023/08/04 10:44:48;;;;;;;1.27;1.05;;;;;;;;;;4277527;33;20076;-75
2023/08/04 10:47:28;;;;;;;4.45;0.90;;;;;;;;;;4280362;33;20204;-74
2023/08/04 10:49:55;;;;;;;6.60;1.20;;;;;;;;;;4276335;33;20542;-75
2023/08/04 10:52:22;;;;;;;5.80;1.12;;;;;;;;;;4271782;33;20160;-75
2023/08/04 10:54:49;;;;;;;0.70;0.70;;;;;;;;;;4285435;33;20135;-75
2023/08/04 10:57:19;;;;;;;4.00;1.05;;;;;;;;;;4290782;33;20063;-75
2023/08/04 10:59:45;;;;;;;1.70;0.95;;;;;;;;;;4289834;33;20029;-74
2023/08/04 11:02:15;;;;;;;1.92;1.00;;;;;;;;;;4434633;28;20067;-77
2023/08/04 11:04:41;;;;;;;0.62;0.62;;;;;;;;;;4289587;33;20063;-74
2023/08/04 11:07:07;;;;;;;5.62;1.65;;;;;;;;;;4289130;33;20062;-75
2023/08/04 11:09:33;;;;;;;9.20;1.35;;;;;;;;;;4293155;33;20100;-75
2023/08/04 11:12:00;;;;;;;6.22;1.48;;;;;;;;;;4300637;33;20091;-76
2023/08/04 11:14:26;;;;;;;4.45;1.02;;;;;;;;;;4302142;33;20055;-77
2023/08/04 11:16:52;;;;;;;5.60;1.08;;;;;;;;;;4303240;33;20067;-75
2023/08/04 11:19:19;;;;;;;7.12;2.10;;;;;;;;;;4297312;33;20041;-75
2023/08/04 11:21:45;;;;;;;1.00;1.00;;;;;;;;;;4297460;33;20044;-74
2023/08/04 11:24:11;;;;;;;0.98;0.98;;;;;;;;;;4295806;33;20089;-75
2023/08/04 11:26:38;;;;;;;0.90;0.60;;;;;;;;;;4309531;33;20025;-75
2023/08/04 11:29:04;;;;;;;3.42;1.73;;;;;;;;;;4311162;33;20066;-74
2023/08/04 11:31:33;;;;;;;6.05;1.27;;;;;;;;;;4313052;33;20206;-74
2023/08/04 11:33:59;;;;;;;1.05;0.98;;;;;;;;;;4313887;33;20088;-75
2023/08/04 11:36:27;;;;;;;5.05;0.60;;;;;;;;;;4314231;33;20395;-74
2023/08/04 11:38:53;;;;;;;2.47;1.75;;;;;;;;;;4313462;33;20084;-73
2023/08/04 11:41:21;;;;;;;1.35;1.08;;;;;;;;;;4311724;33;20454;-73
2023/08/04 11:43:47;;;;;;;0.90;0.90;;;;;;;;;;4313698;33;20316;-73
2023/08/04 11:46:13;;;;;;;4.85;1.10;;;;;;;;;;4313130;33;20150;-74
2023/08/04 11:48:39;;;;;;;1.00;1.00;;;;;;;;;;4311166;33;20092;-75
2023/08/04 11:51:06;;;;;;;4.80;1.20;;;;;;;;;;4312300;33;20132;-76
2023/08/04 11:53:32;;;;;;;1.00;0.93;;;;;;;;;;4311838;33;20041;-75
2023/08/04 11:56:01;;;;;;;2.75;1.75;;;;;;;;;;4294668;33;20049;-75
2023/08/04 11:58:37;;;;;;;1.83;1.12;;;;;;;;;;4295259;33;20029;-75
2023/08/04 12:01:04;;;;;;;9.90;2.12;;;;;;;;;;4296019;33;20498;-76
2023/08/04 12:03:46;;;;;;;6.82;1.50;;;;;;;;;;4291469;33;20053;-75
2023/08/04 12:06:14;;;;;;;3.10;1.50;;;;;;;;;;4278872;33;20055;-75
2023/08/04 12:08:46;;;;;;;1.20;1.20;;;;;;;;;;4280919;33;20041;-73
2023/08/04 12:11:12;;;;;;;4.37;1.40;;;;;;;;;;4278357;33;20447;-74
2023/08/04 12:13:39;;;;;;;2.95;1.20;;;;;;;;;;4280601;33;20070;-75
2023/08/04 12:16:06;;;;;;;2.37;0.77;;;;;;;;;;4281668;33;20042;-75
2023/08/04 12:18:33;;;;;;;0.95;0.90;;;;;;;;;;4281476;33;20029;-75
2023/08/04 12:21:01;;;;;;;0.70;0.70;;;;;;;;;;4279753;33;20092;-76
2023/08/04 12:23:28;;;;;;;1.33;1.08;;;;;;;;;;4281296;33;20042;-74
2023/08/04 12:25:54;;;;;;;7.97;1.52;;;;;;;;;;4290500;33;20071;-75
2023/08/04 12:28:20;;;;;;;1.35;0.93;;;;;;;;;;4295860;33;20435;-75
2023/08/04 12:30:47;;;;;;;3.92;0.98;;;;;;;;;;4295759;33;20085;-74
2023/08/04 12:33:14;;;;;;;2.87;1.10;;;;;;;;;;4292465;33;20029;-76
2023/08/04 12:35:40;;;;;;;1.25;1.25;;;;;;;;;;4294708;33;20489;-74
2023/08/04 12:40:39;;;;;;;5.68;0.88;;;;;;;;;;4312003;33;20457;-76
2023/08/04 12:43:05;;;;;;;3.60;1.05;;;;;;;;;;4294841;33;20117;-77
2023/08/04 12:45:32;;;;;;;2.25;1.23;;;;;;;;;;4294188;33;20403;-75
2023/08/04 12:47:58;;;;;;;1.42;1.27;;;;;;;;;;4295681;33;20089;-74
2023/08/04 12:50:24;;;;;;;7.60;0.98;;;;;;;;;;4295987;33;20197;-74
2023/08/04 12:52:50;;;;;;;2.22;1.65;;;;;;;;;;4296250;33;20036;-75
2023/08/04 12:55:16;;;;;;;6.05;1.35;;;;;;;;;;4295230;33;20057;-75
2023/08/04 12:57:42;;;;;;;1.00;0.88;;;;;;;;;;4293761;33;20352;-75
2023/08/04 13:00:09;;;;;;;3.30;1.08;;;;;;;;;;4295105;33;20057;-76
2023/08/04 13:02:35;;;;;;;3.45;0.70;;;;;;;;;;4294304;33;20038;-74
2023/08/04 13:05:02;;;;;;;0.77;0.77;;;;;;;;;;4294021;33;20052;-76
2023/08/04 13:07:29;;;;;;;3.83;1.10;;;;;;;;;;4291771;33;20044;-75
2023/08/04 13:09:55;;;;;;;14.75;7.18;;;;;;;;;;4292999;33;20056;-74
2023/08/04 13:12:21;;;;;;;1.33;1.23;;;;;;;;;;4295055;33;20546;-75
2023/08/04 13:14:47;;;;;;;1.55;1.55;;;;;;;;;;4308384;33;20025;-75
2023/08/04 13:17:13;;;;;;;1.10;1.10;;;;;;;;;;4312212;33;20087;-75
2023/08/04 13:19:40;;;;;;;0.88;0.70;;;;;;;;;;4309898;33;20092;-76
2023/08/04 13:22:06;;;;;;;0.98;0.98;;;;;;;;;;4311206;33;20062;-76
2023/08/04 13:24:32;;;;;;;5.72;1.40;;;;;;;;;;4312483;33;20138;-75
2023/08/04 13:26:58;;;;;;;2.62;1.80;;;;;;;;;;4310994;33;20125;-74
2023/08/04 13:29:24;;;;;;;12.75;1.10;;;;;;;;;;4312565;33;20511;-75
2023/08/04 13:31:50;;;;;;;3.20;0.80;;;;;;;;;;4311499;33;20136;-75
2023/08/04 13:34:16;;;;;;;2.78;0.90;;;;;;;;;;4310218;33;20066;-74
2023/08/04 13:36:43;;;;;;;0.80;0.80;;;;;;;;;;4312287;33;20385;-76
2023/08/04 13:39:09;;;;;;;0.73;0.68;;;;;;;;;;4312455;33;20491;-75
2023/08/04 13:41:35;;;;;;;3.85;1.02;;;;;;;;;;4311453;33;20049;-75
2023/08/04 13:44:01;;;;;;;3.50;1.50;;;;;;;;;;4311236;33;20071;-75
2023/08/04 13:46:29;;;;;;;0.82;0.82;;;;;;;;;;4310973;33;20056;-76
2023/08/04 13:48:55;;;;;;;3.20;0.82;;;;;;;;;;4312175;33;20206;-75
2023/08/04 13:51:21;;;;;;;0.90;0.90;;;;;;;;;;4309852;33;20070;-76
2023/08/04 13:53:47;;;;;;;4.57;0.80;;;;;;;;;;4308391;33;20049;-76
2023/08/04 13:56:13;;;;;;;3.85;0.90;;;;;;;;;;4293613;33;20051;-75
2023/08/04 13:58:40;;;;;;;1.90;0.70;;;;;;;;;;4293446;33;20502;-78
2023/08/04 14:01:05;;;;;;;3.92;2.08;;;;;;;;;;4295167;33;20041;-76
2023/08/04 14:03:32;;;;;;;0.82;0.80;;;;;;;;;;4294584;33;20075;-76
2023/08/04 14:06:02;;;;;;;2.37;1.35;;;;;;;;;;4294533;33;20041;-76
2023/08/04 14:08:28;;;;;;;4.53;0.85;;;;;;;;;;4292507;33;20056;-76
2023/08/04 14:10:54;;;;;;;1.70;0.90;;;;;;;;;;4292871;33;20328;-76
2023/08/04 14:13:21;;;;;;;3.40;0.65;;;;;;;;;;4294984;33;20055;-76
2023/08/04 14:15:47;;;;;;;3.00;0.68;;;;;;;;;;4295115;33;20438;-75
2023/08/04 14:18:14;;;;;;;1.00;0.68;;;;;;;;;;4293705;33;20049;-76
2023/08/04 14:20:40;;;;;;;3.62;0.80;;;;;;;;;;4292864;33;20098;-77
2023/08/04 14:23:07;;;;;;;3.97;1.02;;;;;;;;;;4283584;33;20292;-76
2023/08/04 14:25:33;;;;;;;4.53;0.70;;;;;;;;;;4279717;33;20521;-74
2023/08/04 14:27:59;;;;;;;1.40;0.80;;;;;;;;;;4279215;33;20200;-76
2023/08/04 14:30:25;;;;;;;4.40;0.93;;;;;;;;;;4282092;33;20563;-77
2023/08/04 14:32:51;;;;;;;1.42;0.85;;;;;;;;;;4280318;33;20383;-77
2023/08/04 14:35:17;;;;;;;1.05;1.02;;;;;;;;;;4282296;33;20315;-75
2023/08/04 14:37:43;;;;;;;16.90;1.00;;;;;;;;;;4281967;33;20391;-75
2023/08/04 14:40:10;;;;;;;5.47;1.10;;;;;;;;;;4253419;33;20111;-76
2023/08/04 14:42:36;;;;;;;6.82;1.00;;;;;;;;;;4265654;33;20440;-75
2023/08/04 14:45:02;;;;;;;2.00;0.88;;;;;;;;;;4267373;33;20053;-75
2023/08/04 14:47:28;;;;;;;9.73;1.17;;;;;;;;;;4254339;33;20339;-75
2023/08/04 14:49:54;;;;;;;5.07;1.10;;;;;;;;;;4254122;33;20061;-75
2023/08/04 14:52:20;;;;;;;0.70;0.70;;;;;;;;;;4239422;33;20458;-75
2023/08/04 14:54:49;;;;;;;3.03;0.73;;;;;;;;;;4240466;33;20046;-76
2023/08/04 14:57:15;;;;;;;3.80;1.20;;;;;;;;;;4239394;33;20058;-75
2023/08/04 14:59:41;;;;;;;2.17;1.27;;;;;;;;;;4219627;33;20222;-75
2023/08/04 15:02:08;;;;;;;2.30;0.88;;;;;;;;;;4212450;34;20448;-76
2023/08/04 15:04:34;;;;;;;2.85;0.80;;;;;;;;;;4212497;34;20058;-76
2023/08/04 15:07:00;;;;;;;0.82;0.80;;;;;;;;;;4222683;34;20042;-78
2023/08/04 15:09:27;;;;;;;0.80;0.80;;;;;;;;;;4223159;34;20068;-77
2023/08/04 15:11:53;;;;;;;7.20;1.10;;;;;;;;;;4247592;33;20085;-76
2023/08/04 15:14:21;;;;;;;3.65;0.90;;;;;;;;;;4254420;33;20100;-76
2023/08/04 15:16:47;;;;;;;2.42;0.95;;;;;;;;;;4254454;33;20083;-77
2023/08/04 15:19:13;;;;;;;4.12;1.48;;;;;;;;;;4264610;33;20105;-77
2023/08/04 15:21:39;;;;;;;13.60;1.00;;;;;;;;;;4266060;33;20070;-77
2023/08/04 15:24:05;;;;;;;1.80;0.77;;;;;;;;;;4293064;33;20352;-76
2023/08/04 15:26:31;;;;;;;0.60;0.60;;;;;;;;;;4298517;33;20078;-76
2023/08/04 15:28:57;;;;;;;2.47;0.75;;;;;;;;;;4299940;33;20452;-75
2023/08/04 15:31:24;;;;;;;13.07;1.02;;;;;;;;;;4297798;33;20074;-75
2023/08/04 15:33:50;;;;;;;1.92;0.82;;;;;;;;;;4298025;33;20088;-76
2023/08/04 15:36:16;;;;;;;7.65;0.85;;;;;;;;;;4298237;33;20067;-75
2023/08/04 15:38:42;;;;;;;0.75;0.75;;;;;;;;;;4299974;33;20075;-76
2023/08/04 15:41:09;;;;;;;5.35;1.05;;;;;;;;;;4299208;33;20359;-76
2023/08/04 15:43:37;;;;;;;0.43;0.43;;;;;;;;;;4300251;33;20056;-76
2023/08/04 15:46:09;;;;;;;2.50;0.73;;;;;;;;;;4297533;33;20093;-76
2023/08/04 15:48:36;;;;;;;4.72;1.10;;;;;;;;;;4297260;33;20298;-76
2023/08/04 15:51:02;;;;;;;7.25;1.05;;;;;;;;;;4297387;33;20075;-76
2023/08/04 15:53:29;;;;;;;5.70;1.20;;;;;;;;;;4296940;33;20068;-76
2023/08/04 15:55:55;;;;;;;7.78;0.60;;;;;;;;;;4296135;33;20033;-76
2023/08/04 15:58:25;;;;;;;1.50;1.00;;;;;;;;;;4280116;33;20045;-76
2023/08/04 16:00:51;;;;;;;4.53;0.93;;;;;;;;;;4281665;33;20049;-75
2023/08/04 16:03:18;;;;;;;3.20;0.80;;;;;;;;;;4282315;33;20059;-76
2023/08/04 16:05:45;;;;;;;2.72;1.10;;;;;;;;;;4280643;33;20403;-76
2023/08/04 16:08:11;;;;;;;12.60;1.35;;;;;;;;;;4281498;33;20079;-75
2023/08/04 16:10:37;;;;;;;9.88;1.30;;;;;;;;;;4280252;33;20025;-75
2023/08/04 16:13:03;;;;;;;1.10;0.90;;;;;;;;;;4282195;33;20120;-75
2023/08/04 16:15:29;;;;;;;8.68;0.98;;;;;;;;;;4282552;33;20088;-75
2023/08/04 16:17:56;;;;;;;1.65;1.05;;;;;;;;;;4281843;33;20071;-75
2023/08/04 16:20:23;;;;;;;4.75;1.30;;;;;;;;;;4281467;33;20041;-76
2023/08/04 16:22:49;;;;;;;0.90;0.80;;;;;;;;;;4295449;33;20295;-76
2023/08/04 16:25:15;;;;;;;0.90;0.90;;;;;;;;;;4296987;33;20051;-76
2023/08/04 16:27:41;;;;;;;1.95;1.05;;;;;;;;;;4296655;33;20112;-76
2023/08/04 16:30:07;;;;;;;0.85;0.85;;;;;;;;;;4298822;33;20096;-76
2023/08/04 16:32:34;;;;;;;0.70;0.70;;;;;;;;;;4298984;33;20071;-77
2023/08/04 16:34:59;;;;;;;0.90;0.90;;;;;;;;;;4307573;33;20380;-76
2023/08/04 16:37:26;;;;;;;0.73;0.73;;;;;;;;;;4306551;33;20096;-77
2023/08/04 16:39:52;;;;;;;5.55;0.90;;;;;;;;;;4308115;33;20130;-77
2023/08/04 16:42:18;;;;;;;7.37;1.00;;;;;;;;;;4306907;33;20088;-76